createdAt,value
2023-01-19T00:00:36.504Z,13.05
2023-01-19T00:03:10.106Z,13.09
2023-01-19T00:05:40.650Z,13.35
2023-01-19T00:08:17.760Z,12.94
2023-01-19T00:10:54.026Z,13.00
2023-01-19T00:13:24.899Z,13.08
2023-01-19T00:15:55.697Z,13.33
2023-01-19T00:18:26.368Z,12.74
2023-01-19T00:20:57.106Z,12.73
2023-01-19T00:23:29.046Z,12.72
2023-01-19T00:25:59.586Z,13.06
2023-01-19T00:28:30.090Z,12.69
2023-01-19T00:31:00.654Z,12.28
2023-01-19T00:33:31.201Z,12.11
2023-01-19T00:36:01.742Z,12.56
2023-01-19T00:38:32.328Z,12.92
2023-01-19T00:41:03.304Z,12.99
2023-01-19T00:43:34.104Z,12.72
2023-01-19T00:46:05.647Z,12.22
2023-01-19T00:48:37.347Z,12.29
2023-01-19T00:51:07.952Z,12.87
2023-01-19T00:53:38.541Z,12.10
2023-01-19T00:56:09.475Z,11.68
2023-01-19T00:58:40.058Z,12.11
2023-01-19T01:01:12.693Z,11.67
2023-01-19T01:03:43.323Z,12.71
2023-01-19T01:06:13.857Z,12.74
2023-01-19T01:08:44.483Z,11.53
2023-01-19T01:11:15.062Z,11.78
2023-01-19T01:13:45.624Z,12.63
2023-01-19T01:16:19.328Z,12.55
2023-01-19T01:18:49.893Z,12.09
2023-01-19T01:21:21.532Z,12.17
2023-01-19T01:23:52.135Z,11.92
2023-01-19T01:26:22.786Z,12.78
2023-01-19T01:28:53.364Z,12.38
2023-01-19T01:31:24.069Z,13.19
2023-01-19T01:33:54.805Z,12.20
2023-01-19T01:36:26.984Z,11.42
2023-01-19T01:38:57.531Z,11.36
2023-01-19T01:41:28.284Z,11.76
2023-01-19T01:44:01.322Z,11.73
2023-01-19T01:46:33.232Z,11.94
2023-01-19T01:49:10.363Z,11.97
2023-01-19T01:51:47.188Z,12.39
2023-01-19T01:54:26.383Z,12.45
2023-01-19T01:57:00.921Z,12.52
2023-01-19T01:59:39.521Z,12.46
2023-01-19T02:02:33.261Z,12.70
2023-01-19T02:05:09.550Z,11.99
2023-01-19T02:08:27.240Z,12.30
2023-01-19T02:11:17.205Z,12.27
2023-01-19T02:13:47.827Z,12.04
2023-01-19T02:16:18.859Z,11.95
2023-01-19T02:18:49.528Z,12.08
2023-01-19T02:21:34.770Z,12.16
2023-01-19T02:24:05.894Z,12.11
2023-01-19T02:26:42.609Z,12.39
2023-01-19T02:29:15.628Z,12.69
2023-01-19T02:31:46.692Z,12.73
2023-01-19T02:34:22.098Z,12.92
2023-01-19T02:36:59.075Z,12.97
2023-01-19T02:39:39.833Z,12.65
2023-01-19T02:42:15.656Z,12.93
2023-01-19T02:44:52.665Z,13.07
2023-01-19T02:47:25.528Z,13.15
2023-01-19T02:50:02.769Z,13.23
2023-01-19T02:52:35.116Z,13.20
2023-01-19T02:55:15.954Z,13.50
2023-01-19T02:58:11.297Z,13.62
2023-01-19T03:00:55.181Z,13.73
2023-01-19T03:03:29.166Z,13.55
2023-01-19T03:06:25.341Z,13.62
2023-01-19T03:09:08.800Z,13.48
2023-01-19T03:11:43.026Z,13.73
2023-01-19T03:14:19.675Z,13.56
2023-01-19T03:16:57.838Z,13.67
2023-01-19T03:19:41.843Z,13.68
2023-01-19T03:22:26.525Z,12.73
2023-01-19T03:25:06.795Z,12.73
2023-01-19T03:27:42.439Z,12.99
2023-01-19T03:30:20.381Z,13.09
2023-01-19T03:32:55.461Z,12.93
2023-01-19T03:35:32.296Z,13.01
2023-01-19T03:38:08.829Z,12.78
2023-01-19T03:40:42.294Z,12.96
2023-01-19T03:43:16.846Z,12.98
2023-01-19T03:45:50.687Z,12.91
2023-01-19T03:48:25.632Z,12.94
2023-01-19T03:50:57.965Z,13.10
2023-01-19T03:53:33.604Z,12.99
2023-01-19T03:56:07.800Z,12.90
2023-01-19T03:58:39.027Z,12.71
2023-01-19T04:01:11.720Z,12.90
2023-01-19T04:03:45.358Z,13.01
2023-01-19T04:06:16.784Z,13.10
2023-01-19T04:08:50.290Z,13.06
2023-01-19T04:11:26.127Z,12.95
2023-01-19T04:14:00.979Z,13.18
2023-01-19T04:16:32.487Z,12.86
2023-01-19T04:19:05.375Z,13.02
2023-01-19T04:21:39.410Z,12.94
2023-01-19T04:24:13.008Z,12.87
2023-01-19T04:26:46.806Z,12.94
2023-01-19T04:29:18.381Z,13.09
2023-01-19T04:31:51.796Z,12.92
2023-01-19T04:34:23.212Z,13.04
2023-01-19T04:36:58.217Z,13.06
2023-01-19T04:39:30.602Z,13.06
2023-01-19T04:42:11.171Z,13.51
2023-01-19T04:44:43.376Z,13.69
2023-01-19T04:47:15.641Z,13.28
2023-01-19T04:49:47.794Z,12.82
2023-01-19T04:52:19.216Z,13.02
2023-01-19T04:54:50.884Z,12.85
2023-01-19T04:57:21.464Z,13.10
2023-01-19T04:59:52.179Z,13.02
2023-01-19T05:02:22.947Z,13.18
2023-01-19T05:04:53.988Z,13.23
2023-01-19T05:07:24.534Z,13.34
2023-01-19T05:09:55.387Z,13.18
2023-01-19T05:12:25.939Z,12.96
2023-01-19T05:14:56.541Z,13.02
2023-01-19T05:17:27.403Z,13.16
2023-01-19T05:19:57.972Z,13.14
2023-01-19T05:22:28.570Z,13.02
2023-01-19T05:24:59.141Z,13.08
2023-01-19T05:27:29.663Z,13.05
2023-01-19T05:30:00.189Z,13.00
2023-01-19T05:32:30.727Z,13.06
2023-01-19T05:35:01.415Z,13.15
2023-01-19T05:37:32.787Z,13.11
2023-01-19T05:40:03.337Z,13.19
2023-01-19T05:42:34.267Z,12.88
2023-01-19T05:45:05.115Z,12.92
2023-01-19T05:47:35.790Z,12.83
2023-01-19T05:50:06.992Z,13.08
2023-01-19T05:52:37.534Z,13.09
2023-01-19T05:55:08.796Z,13.06
2023-01-19T05:57:39.447Z,13.07
2023-01-19T06:00:11.052Z,13.08
2023-01-19T06:02:42.837Z,13.35
2023-01-19T06:05:13.457Z,13.49
2023-01-19T06:07:44.009Z,13.43
2023-01-19T06:10:14.616Z,13.41
2023-01-19T06:12:46.190Z,13.28
2023-01-19T06:15:16.861Z,13.40
2023-01-19T06:17:47.422Z,13.44
2023-01-19T06:20:18.636Z,13.43
2023-01-19T06:22:49.241Z,13.26
2023-01-19T06:25:19.879Z,13.22
2023-01-19T06:27:50.405Z,13.29
2023-01-19T06:30:21.304Z,13.03
2023-01-19T06:32:51.905Z,12.66
2023-01-19T06:35:22.471Z,12.77
2023-01-19T06:37:54.137Z,13.10
2023-01-19T06:40:24.690Z,13.34
2023-01-19T06:42:55.217Z,13.22
2023-01-19T06:45:26.880Z,13.07
2023-01-19T06:47:57.485Z,13.04
2023-01-19T06:50:28.472Z,13.05
2023-01-19T06:52:59.367Z,13.23
2023-01-19T06:55:30.163Z,12.88
2023-01-19T06:58:01.441Z,12.87
2023-01-19T07:00:32.281Z,12.45
2023-01-19T07:03:05.117Z,12.51
2023-01-19T07:05:37.491Z,12.07
2023-01-19T07:08:08.014Z,12.34
2023-01-19T07:11:22.211Z,12.42
2023-01-19T07:13:10.846Z,12.65
2023-01-19T07:15:42.561Z,12.81
2023-01-19T07:18:13.118Z,12.99
2023-01-19T07:20:45.270Z,12.58
2023-01-19T07:23:16.410Z,12.48
2023-01-19T07:25:48.039Z,12.77
2023-01-19T07:28:18.816Z,13.09
2023-01-19T07:30:54.413Z,13.06
2023-01-19T07:33:26.338Z,13.32
2023-01-19T07:35:57.890Z,13.10
2023-01-19T07:38:28.467Z,13.11
2023-01-19T07:41:07.266Z,13.07
2023-01-19T07:43:37.913Z,13.33
2023-01-19T07:46:08.888Z,13.31
2023-01-19T07:48:39.698Z,13.43
2023-01-19T07:51:13.201Z,13.68
2023-01-19T07:53:45.534Z,13.55
2023-01-19T07:56:16.325Z,13.65
2023-01-19T07:58:47.093Z,13.43
2023-01-19T08:01:18.257Z,13.31
2023-01-19T08:03:50.136Z,13.44
2023-01-19T08:06:25.817Z,13.34
2023-01-19T08:08:56.331Z,13.16
2023-01-19T08:11:26.996Z,13.20
2023-01-19T08:13:57.596Z,13.17
2023-01-19T08:16:28.524Z,13.15
2023-01-19T08:18:59.341Z,13.11
2023-01-19T08:21:33.127Z,13.06
2023-01-19T08:24:04.094Z,12.88
2023-01-19T08:26:36.555Z,12.96
2023-01-19T08:29:07.368Z,13.02
2023-01-19T08:31:38.776Z,12.87
2023-01-19T08:34:09.801Z,13.01
2023-01-19T08:36:40.380Z,12.91
2023-01-19T08:39:12.515Z,12.90
2023-01-19T08:41:43.443Z,12.84
2023-01-19T08:44:16.129Z,12.91
2023-01-19T08:46:48.935Z,12.73
2023-01-19T08:49:19.512Z,12.84
2023-01-19T08:51:50.081Z,12.88
2023-01-19T08:54:23.371Z,12.74
2023-01-19T08:57:14.224Z,12.73
2023-01-19T08:59:51.678Z,12.73
2023-01-19T09:02:35.808Z,12.91
2023-01-19T09:05:42.527Z,12.96
2023-01-19T09:08:21.839Z,13.07
2023-01-19T09:10:54.107Z,13.25
2023-01-19T09:13:26.693Z,13.16
2023-01-19T09:15:58.019Z,13.18
2023-01-19T09:18:28.943Z,13.69
2023-01-19T09:20:59.777Z,13.68
2023-01-19T09:23:30.675Z,13.83
2023-01-19T09:26:03.637Z,13.87
2023-01-19T09:28:34.717Z,14.16
2023-01-19T09:31:10.032Z,14.24
2023-01-19T09:33:40.886Z,14.38
2023-01-19T09:36:11.706Z,14.51
2023-01-19T09:38:42.738Z,14.08
2023-01-19T09:41:20.539Z,14.31
2023-01-19T09:44:00.184Z,14.48
2023-01-19T09:46:42.390Z,14.60
2023-01-19T09:49:15.910Z,14.60
2023-01-19T09:51:49.151Z,14.50
2023-01-19T09:54:46.693Z,14.58
2023-01-19T09:57:17.248Z,15.01
2023-01-19T09:59:50.791Z,14.67
2023-01-19T10:02:45.351Z,14.93
2023-01-19T10:05:33.558Z,14.41
2023-01-19T10:08:15.758Z,15.15
2023-01-19T10:10:54.395Z,15.25
2023-01-19T10:13:42.046Z,15.66
2023-01-19T10:16:33.232Z,15.20
2023-01-19T10:19:15.382Z,15.21
2023-01-19T10:21:47.506Z,13.67
2023-01-19T10:24:21.011Z,13.76
2023-01-19T10:26:54.708Z,13.71
2023-01-19T10:29:32.701Z,14.01
2023-01-19T10:32:20.062Z,14.26
2023-01-19T10:34:51.925Z,13.93
2023-01-19T10:37:31.164Z,14.28
2023-01-19T10:40:25.842Z,14.16
2023-01-19T10:42:58.789Z,13.30
2023-01-19T10:45:32.516Z,13.67
2023-01-19T10:48:06.268Z,13.45
2023-01-19T10:50:41.706Z,13.60
2023-01-19T10:53:21.702Z,13.51
2023-01-19T10:55:55.046Z,13.69
2023-01-19T10:58:34.175Z,13.41
2023-01-19T11:01:26.189Z,14.22
2023-01-19T11:03:58.956Z,14.10
2023-01-19T11:06:31.201Z,14.05
2023-01-19T11:09:21.891Z,13.77
2023-01-19T11:11:54.391Z,13.66
2023-01-19T11:14:27.521Z,14.48
2023-01-19T11:17:00.133Z,14.54
2023-01-19T11:19:33.558Z,14.79
2023-01-19T11:22:20.465Z,14.69
2023-01-19T11:24:52.424Z,14.69
2023-01-19T11:27:23.479Z,14.47
2023-01-19T11:30:10.673Z,14.37
2023-01-19T11:32:42.254Z,14.15
2023-01-19T11:35:34.122Z,14.59
2023-01-19T11:38:19.685Z,14.53
2023-01-19T11:40:59.091Z,14.57
2023-01-19T11:43:47.492Z,14.75
2023-01-19T11:46:04.021Z,14.15
2023-01-19T11:48:40.349Z,14.41
2023-01-19T11:51:15.049Z,14.11
2023-01-19T11:53:48.571Z,14.56
2023-01-19T11:56:22.139Z,14.52
2023-01-19T11:58:52.673Z,13.73
2023-01-19T12:01:35.319Z,14.39
2023-01-19T12:04:17.487Z,14.89
2023-01-19T12:06:50.966Z,15.00
2023-01-19T12:09:27.067Z,13.86
2023-01-19T12:12:00.520Z,13.82
2023-01-19T12:14:43.044Z,14.32
2023-01-19T12:17:17.535Z,13.13
2023-01-19T12:19:55.135Z,14.06
2023-01-19T12:22:28.988Z,14.02
2023-01-19T12:25:09.182Z,14.14
2023-01-19T12:27:41.919Z,14.42
2023-01-19T12:30:24.102Z,14.58
2023-01-19T12:33:13.964Z,14.40
2023-01-19T12:36:03.929Z,14.28
2023-01-19T12:38:49.624Z,14.41
2023-01-19T12:41:32.025Z,14.80
2023-01-19T12:44:16.386Z,14.43
2023-01-19T12:46:52.701Z,14.39
2023-01-19T12:49:42.776Z,14.23
2023-01-19T12:52:36.503Z,14.56
2023-01-19T12:55:10.023Z,14.23
2023-01-19T12:58:00.989Z,14.51
2023-01-19T13:00:34.693Z,14.66
2023-01-19T13:03:08.312Z,14.62
2023-01-19T13:05:44.999Z,14.60
2023-01-19T13:08:23.448Z,14.47
2023-01-19T13:11:06.506Z,14.51
2023-01-19T13:13:52.709Z,14.52
2023-01-19T13:16:27.682Z,14.13
2023-01-19T13:19:05.438Z,13.82
2023-01-19T13:21:44.676Z,13.98
2023-01-19T13:24:23.510Z,14.18
2023-01-19T13:26:57.962Z,14.04
2023-01-19T13:29:33.948Z,13.94
2023-01-19T13:32:07.825Z,13.98
2023-01-19T13:34:44.213Z,13.94
2023-01-19T13:37:24.698Z,13.78
2023-01-19T13:39:56.733Z,13.78
2023-01-19T13:42:39.186Z,14.55
2023-01-19T13:45:29.942Z,14.62
2023-01-19T13:48:03.453Z,14.56
2023-01-19T13:50:38.590Z,14.57
2023-01-19T13:53:20.897Z,14.47
2023-01-19T13:56:12.979Z,14.07
2023-01-19T13:58:43.682Z,13.58
2023-01-19T14:01:26.617Z,14.15
2023-01-19T14:03:58.245Z,13.29
2023-01-19T14:06:43.559Z,13.68
2023-01-19T14:09:19.488Z,13.47
2023-01-19T14:12:14.261Z,13.02
2023-01-19T14:14:49.784Z,13.72
2023-01-19T14:17:21.343Z,13.40
2023-01-19T14:19:59.655Z,13.46
2023-01-19T14:22:45.175Z,13.17
2023-01-19T14:25:30.262Z,13.66
2023-01-19T14:28:32.196Z,14.28
2023-01-19T14:31:22.031Z,14.53
2023-01-19T14:33:54.858Z,14.65
2023-01-19T14:36:32.615Z,14.56
2023-01-19T14:39:09.215Z,13.76
2023-01-19T14:41:50.487Z,13.45
2023-01-19T14:44:31.170Z,13.77
2023-01-19T14:47:06.817Z,13.93
2023-01-19T14:49:46.981Z,13.63
2023-01-19T14:52:25.679Z,13.75
2023-01-19T14:55:00.234Z,13.66
2023-01-19T14:57:35.118Z,14.00
2023-01-19T15:00:18.370Z,14.06
2023-01-19T15:02:53.435Z,14.07
2023-01-19T15:05:25.737Z,14.13
2023-01-19T15:07:57.903Z,14.23
2023-01-19T15:10:29.212Z,14.32
2023-01-19T15:13:03.255Z,13.15
2023-01-19T15:15:36.735Z,13.44
2023-01-19T15:18:10.751Z,13.33
2023-01-19T15:20:44.650Z,13.03
2023-01-19T15:23:19.491Z,12.57
2023-01-19T15:25:52.572Z,12.28
2023-01-19T15:28:25.760Z,14.10
2023-01-19T15:31:03.207Z,13.59
2023-01-19T15:33:35.576Z,13.59
2023-01-19T15:36:12.049Z,13.02
2023-01-19T15:38:49.112Z,13.37
2023-01-19T15:41:33.768Z,13.20
2023-01-19T15:44:08.420Z,13.33
2023-01-19T15:46:41.310Z,12.99
2023-01-19T15:49:12.899Z,12.83
2023-01-19T15:51:45.242Z,11.93
2023-01-19T15:54:21.594Z,11.57
2023-01-19T15:56:54.072Z,12.09
2023-01-19T15:59:26.166Z,12.35
2023-01-19T16:01:58.654Z,13.48
2023-01-19T16:04:29.760Z,13.31
2023-01-19T16:07:06.269Z,12.77
2023-01-19T16:09:38.979Z,12.89
2023-01-19T16:12:11.797Z,13.58
2023-01-19T16:14:45.594Z,13.21
2023-01-19T16:17:19.712Z,13.07
2023-01-19T16:19:50.938Z,13.60
2023-01-19T16:22:25.545Z,12.68
2023-01-19T16:24:59.779Z,13.59
2023-01-19T16:27:32.099Z,12.76
2023-01-19T16:30:05.642Z,12.95
2023-01-19T16:32:39.713Z,13.21
2023-01-19T16:35:11.798Z,14.00
2023-01-19T16:37:46.406Z,13.81
2023-01-19T16:40:30.175Z,13.83
2023-01-19T16:43:07.136Z,13.71
2023-01-19T16:45:41.301Z,13.64
2023-01-19T16:48:14.958Z,14.18
2023-01-19T16:50:50.748Z,14.13
2023-01-19T16:53:32.439Z,14.40
2023-01-19T16:56:12.799Z,14.19
2023-01-19T16:58:44.309Z,14.25
2023-01-19T17:01:20.312Z,13.83
2023-01-19T17:03:51.372Z,14.04
2023-01-19T17:06:23.890Z,13.20
2023-01-19T17:08:54.683Z,14.00
2023-01-19T17:11:27.725Z,14.14
2023-01-19T17:14:02.362Z,14.11
2023-01-19T17:16:34.596Z,14.30
2023-01-19T17:19:07.804Z,14.21
2023-01-19T17:21:38.484Z,14.21
2023-01-19T17:24:09.184Z,14.15
2023-01-19T17:26:40.068Z,14.20
2023-01-19T17:29:11.974Z,14.20
2023-01-19T17:31:43.119Z,13.88
2023-01-19T17:34:13.722Z,13.89
2023-01-19T17:36:44.307Z,13.81
2023-01-19T17:39:16.671Z,13.52
2023-01-19T17:41:49.484Z,13.08
2023-01-19T17:44:19.817Z,12.53
2023-01-19T17:46:50.343Z,11.97
2023-01-19T17:49:20.898Z,12.53
2023-01-19T17:51:55.963Z,12.76
2023-01-19T17:54:26.696Z,13.26
2023-01-19T17:56:57.259Z,13.16
2023-01-19T17:59:27.852Z,12.32
2023-01-19T18:01:58.475Z,13.49
2023-01-19T18:04:30.813Z,13.63
2023-01-19T18:07:01.595Z,13.64
2023-01-19T18:09:32.376Z,12.47
2023-01-19T18:12:03.030Z,12.97
2023-01-19T18:14:34.748Z,13.63
2023-01-19T18:17:05.620Z,13.55
2023-01-19T18:19:37.609Z,13.54
2023-01-19T18:22:09.407Z,12.94
2023-01-19T18:24:40.155Z,13.19
2023-01-19T18:27:12.444Z,12.27
2023-01-19T18:29:43.603Z,13.17
2023-01-19T18:32:14.289Z,12.89
2023-01-19T18:34:44.867Z,12.81
2023-01-19T18:37:15.469Z,13.27
2023-01-19T18:39:46.497Z,13.29
2023-01-19T18:42:17.191Z,12.47
2023-01-19T18:44:47.776Z,13.22
2023-01-19T18:47:18.431Z,13.11
2023-01-19T18:49:50.282Z,13.10
2023-01-19T18:52:20.853Z,13.28
2023-01-19T18:54:52.937Z,12.91
2023-01-19T18:57:24.010Z,12.21
2023-01-19T18:59:54.613Z,12.18
2023-01-19T19:02:26.523Z,12.15
2023-01-19T19:04:57.054Z,12.12
2023-01-19T19:07:27.664Z,12.58
2023-01-19T19:09:58.507Z,11.98
2023-01-19T19:12:29.333Z,12.55
2023-01-19T19:15:00.249Z,12.05
2023-01-19T19:17:30.874Z,11.54
2023-01-19T19:20:01.484Z,12.20
2023-01-19T19:22:32.724Z,12.00
2023-01-19T19:25:03.450Z,11.63
2023-01-19T19:27:34.581Z,12.08
2023-01-19T19:30:05.721Z,12.01
2023-01-19T19:32:36.406Z,11.94
2023-01-19T19:35:09.411Z,11.86
2023-01-19T19:37:40.575Z,11.79
2023-01-19T19:40:13.437Z,11.41
2023-01-19T19:42:44.299Z,11.28
2023-01-19T19:45:15.861Z,11.50
2023-01-19T19:47:46.704Z,10.89
2023-01-19T19:50:18.030Z,12.04
2023-01-19T19:52:48.649Z,11.78
2023-01-19T19:55:19.243Z,11.63
2023-01-19T19:57:49.856Z,12.18
2023-01-19T20:00:21.501Z,11.60
2023-01-19T20:02:53.159Z,11.92
2023-01-19T20:05:23.854Z,12.01
2023-01-19T20:07:54.430Z,12.19
2023-01-19T20:10:26.201Z,12.18
2023-01-19T20:12:58.959Z,12.24
2023-01-19T20:15:30.086Z,11.45
2023-01-19T20:18:00.692Z,11.78
2023-01-19T20:20:35.726Z,11.50
2023-01-19T20:23:07.005Z,11.07
2023-01-19T20:25:40.370Z,11.83
2023-01-19T20:28:11.438Z,11.59
2023-01-19T20:30:44.649Z,11.69
2023-01-19T20:33:16.411Z,11.58
2023-01-19T20:35:52.079Z,11.59
2023-01-19T20:38:23.796Z,11.69
2023-01-19T20:40:55.557Z,11.32
2023-01-19T20:43:26.507Z,11.42
2023-01-19T20:45:58.659Z,10.38
2023-01-19T20:48:30.983Z,10.69
2023-01-19T20:51:04.456Z,10.70
2023-01-19T20:53:38.986Z,10.08
2023-01-19T20:56:16.116Z,11.57
2023-01-19T20:58:47.211Z,11.27
2023-01-19T21:01:21.340Z,11.49
2023-01-19T21:03:55.281Z,11.66
2023-01-19T21:06:26.159Z,12.03
2023-01-19T21:08:57.926Z,11.98
2023-01-19T21:11:29.896Z,11.74
2023-01-19T21:14:01.118Z,11.41
2023-01-19T21:16:35.794Z,11.45
2023-01-19T21:19:08.650Z,11.26
2023-01-19T21:21:41.111Z,11.42
2023-01-19T21:24:12.900Z,11.47
2023-01-19T21:26:43.579Z,11.33
2023-01-19T21:29:14.481Z,11.42
2023-01-19T21:31:46.954Z,11.46
2023-01-19T21:34:17.671Z,11.49
2023-01-19T21:36:50.011Z,11.62
2023-01-19T21:39:20.867Z,11.51
2023-01-19T21:41:51.996Z,11.50
2023-01-19T21:44:23.015Z,11.53
2023-01-19T21:46:55.745Z,11.42
2023-01-19T21:49:26.841Z,11.39
2023-01-19T21:51:58.136Z,11.36
2023-01-19T21:54:32.098Z,11.01
2023-01-19T21:57:03.114Z,11.11
2023-01-19T21:59:33.898Z,11.10
2023-01-19T22:02:05.095Z,11.23
2023-01-19T22:04:40.178Z,11.19
2023-01-19T22:07:10.904Z,11.20
2023-01-19T22:09:45.224Z,11.15
2023-01-19T22:12:16.046Z,11.24
2023-01-19T22:14:49.121Z,11.02
2023-01-19T22:17:19.833Z,10.89
2023-01-19T22:19:50.500Z,11.09
2023-01-19T22:22:21.348Z,10.78
2023-01-19T22:24:52.560Z,11.13
2023-01-19T22:27:25.144Z,10.96
2023-01-19T22:29:56.055Z,11.12
2023-01-19T22:32:27.151Z,11.04
2023-01-19T22:34:57.795Z,10.05
2023-01-19T22:37:31.717Z,10.35
2023-01-19T22:40:02.532Z,10.57
2023-01-19T22:42:33.613Z,10.63
2023-01-19T22:45:04.441Z,10.47
2023-01-19T22:47:37.074Z,11.03
2023-01-19T22:50:14.292Z,10.75
2023-01-19T22:52:45.196Z,11.26
2023-01-19T22:55:16.272Z,11.25
2023-01-19T22:57:47.191Z,11.23
2023-01-19T23:00:25.293Z,11.10
2023-01-19T23:02:56.081Z,11.33
2023-01-19T23:05:26.859Z,11.60
2023-01-19T23:08:04.109Z,11.10
2023-01-19T23:10:35.320Z,10.69
2023-01-19T23:13:05.975Z,10.84
2023-01-19T23:15:36.920Z,10.84
2023-01-19T23:18:08.351Z,11.05
2023-01-19T23:20:39.632Z,10.70
2023-01-19T23:23:10.197Z,10.93
2023-01-19T23:25:40.837Z,11.05
2023-01-19T23:28:11.578Z,10.48
2023-01-19T23:30:48.147Z,10.27
2023-01-19T23:33:18.833Z,10.89
2023-01-19T23:35:49.812Z,10.23
2023-01-19T23:38:23.250Z,10.39
2023-01-19T23:40:59.823Z,10.08
2023-01-19T23:43:30.709Z,10.49
2023-01-19T23:46:12.387Z,10.58
2023-01-19T23:48:43.076Z,9.98
2023-01-19T23:51:20.873Z,10.59
2023-01-19T23:53:52.445Z,10.53
2023-01-19T23:56:25.579Z,10.36
2023-01-19T23:59:06.754Z,10.35
